sensor_id;sensor_type;location;lat;lon;timestamp;temperature;humidity
53152;DHT22;39234;53.158;6.322;2023-03-26T00:00:43;7.20;99.90
53152;DHT22;39234;53.158;6.322;2023-03-26T00:03:10;6.90;99.90
53152;DHT22;39234;53.158;6.322;2023-03-26T00:05:37;8.50;99.90
53152;DHT22;39234;53.158;6.322;2023-03-26T00:08:03;7.10;99.90
53152;DHT22;39234;53.158;6.322;2023-03-26T00:10:28;6.80;99.90
53152;DHT22;39234;53.158;6.322;2023-03-26T00:12:54;7.40;99.90
53152;DHT22;39234;53.158;6.322;2023-03-26T00:15:20;7.20;99.90
53152;DHT22;39234;53.158;6.322;2023-03-26T00:17:45;7.00;99.90
53152;DHT22;39234;53.158;6.322;2023-03-26T00:20:12;6.90;99.90
53152;DHT22;39234;53.158;6.322;2023-03-26T00:22:38;7.00;99.90
53152;DHT22;39234;53.158;6.322;2023-03-26T00:25:05;7.60;99.90
53152;DHT22;39234;53.158;6.322;2023-03-26T00:27:34;6.90;99.90
53152;DHT22;39234;53.158;6.322;2023-03-26T00:30:00;6.90;99.90
53152;DHT22;39234;53.158;6.322;2023-03-26T00:32:28;7.00;99.90
53152;DHT22;39234;53.158;6.322;2023-03-26T00:34:55;7.80;99.90
53152;DHT22;39234;53.158;6.322;2023-03-26T00:37:22;8.90;99.90
53152;DHT22;39234;53.158;6.322;2023-03-26T00:39:54;7.50;99.90
53152;DHT22;39234;53.158;6.322;2023-03-26T00:42:24;7.10;99.90
53152;DHT22;39234;53.158;6.322;2023-03-26T00:44:51;8.30;99.90
53152;DHT22;39234;53.158;6.322;2023-03-26T00:47:20;6.70;99.90
53152;DHT22;39234;53.158;6.322;2023-03-26T00:49:46;8.40;99.90
53152;DHT22;39234;53.158;6.322;2023-03-26T00:52:14;7.10;99.90
53152;DHT22;39234;53.158;6.322;2023-03-26T00:54:43;6.60;99.90
53152;DHT22;39234;53.158;6.322;2023-03-26T00:57:09;7.40;99.90
53152;DHT22;39234;53.158;6.322;2023-03-26T00:59:36;4.80;99.90
53152;DHT22;39234;53.158;6.322;2023-03-26T01:02:02;8.70;99.90
53152;DHT22;39234;53.158;6.322;2023-03-26T01:04:31;6.60;99.90
53152;DHT22;39234;53.158;6.322;2023-03-26T01:07:25;6.70;99.90
53152;DHT22;39234;53.158;6.322;2023-03-26T01:09:56;8.70;99.90
53152;DHT22;39234;53.158;6.322;2023-03-26T01:12:27;6.60;99.90
53152;DHT22;39234;53.158;6.322;2023-03-26T01:14:58;6.80;99.90
53152;DHT22;39234;53.158;6.322;2023-03-26T01:17:26;6.80;99.90
53152;DHT22;39234;53.158;6.322;2023-03-26T01:20:16;6.60;99.90
53152;DHT22;39234;53.158;6.322;2023-03-26T01:22:49;7.10;99.90
53152;DHT22;39234;53.158;6.322;2023-03-26T01:25:17;6.70;99.90
53152;DHT22;39234;53.158;6.322;2023-03-26T01:27:51;6.70;99.90
53152;DHT22;39234;53.158;6.322;2023-03-26T01:30:48;8.00;99.90
53152;DHT22;39234;53.158;6.322;2023-03-26T01:39:07;6.50;99.90
53152;DHT22;39234;53.158;6.322;2023-03-26T01:41:50;6.50;99.90
53152;DHT22;39234;53.158;6.322;2023-03-26T01:44:33;6.30;99.90
53152;DHT22;39234;53.158;6.322;2023-03-26T01:47:04;6.40;99.90
53152;DHT22;39234;53.158;6.322;2023-03-26T01:49:30;6.30;99.90
53152;DHT22;39234;53.158;6.322;2023-03-26T01:51:57;6.20;99.90
53152;DHT22;39234;53.158;6.322;2023-03-26T01:54:26;6.00;99.90
53152;DHT22;39234;53.158;6.322;2023-03-26T02:05:26;6.00;99.90
53152;DHT22;39234;53.158;6.322;2023-03-26T02:08:27;5.90;99.90
53152;DHT22;39234;53.158;6.322;2023-03-26T02:11:03;6.00;99.90
53152;DHT22;39234;53.158;6.322;2023-03-26T02:13:30;5.90;99.90
53152;DHT22;39234;53.158;6.322;2023-03-26T02:16:01;5.90;99.90
53152;DHT22;39234;53.158;6.322;2023-03-26T02:18:28;5.80;99.90
53152;DHT22;39234;53.158;6.322;2023-03-26T02:21:21;5.80;99.90
53152;DHT22;39234;53.158;6.322;2023-03-26T02:23:50;6.70;99.90
53152;DHT22;39234;53.158;6.322;2023-03-26T02:26:27;5.80;99.90
53152;DHT22;39234;53.158;6.322;2023-03-26T02:28:54;5.90;99.90
53152;DHT22;39234;53.158;6.322;2023-03-26T02:31:19;5.90;99.90
53152;DHT22;39234;53.158;6.322;2023-03-26T02:33:46;6.00;99.90
53152;DHT22;39234;53.158;6.322;2023-03-26T02:36:12;6.00;99.90
53152;DHT22;39234;53.158;6.322;2023-03-26T02:38:39;8.20;99.90
53152;DHT22;39234;53.158;6.322;2023-03-26T02:41:06;5.90;99.90
53152;DHT22;39234;53.158;6.322;2023-03-26T02:43:32;8.00;99.90
53152;DHT22;39234;53.158;6.322;2023-03-26T02:45:58;6.20;99.90
53152;DHT22;39234;53.158;6.322;2023-03-26T02:48:23;6.80;99.90
53152;DHT22;39234;53.158;6.322;2023-03-26T02:50:49;6.90;99.90
53152;DHT22;39234;53.158;6.322;2023-03-26T02:53:19;6.10;99.90
53152;DHT22;39234;53.158;6.322;2023-03-26T02:55:46;6.20;99.90
53152;DHT22;39234;53.158;6.322;2023-03-26T02:58:12;6.10;99.90
53152;DHT22;39234;53.158;6.322;2023-03-26T03:00:45;7.60;99.90
53152;DHT22;39234;53.158;6.322;2023-03-26T03:03:11;6.10;99.90
53152;DHT22;39234;53.158;6.322;2023-03-26T03:05:38;5.90;99.90
53152;DHT22;39234;53.158;6.322;2023-03-26T03:08:08;6.00;99.90
53152;DHT22;39234;53.158;6.322;2023-03-26T03:10:33;6.20;99.90
53152;DHT22;39234;53.158;6.322;2023-03-26T03:12:59;6.20;99.90
53152;DHT22;39234;53.158;6.322;2023-03-26T03:15:25;6.20;99.90
53152;DHT22;39234;53.158;6.322;2023-03-26T03:17:52;6.00;99.90
53152;DHT22;39234;53.158;6.322;2023-03-26T03:20:18;6.10;99.90
53152;DHT22;39234;53.158;6.322;2023-03-26T03:22:44;8.10;99.90
53152;DHT22;39234;53.158;6.322;2023-03-26T03:25:10;6.90;99.90
53152;DHT22;39234;53.158;6.322;2023-03-26T03:27:40;6.10;99.90
53152;DHT22;39234;53.158;6.322;2023-03-26T03:30:08;6.10;99.90
53152;DHT22;39234;53.158;6.322;2023-03-26T03:32:35;5.90;99.90
53152;DHT22;39234;53.158;6.322;2023-03-26T03:35:01;6.00;99.90
53152;DHT22;39234;53.158;6.322;2023-03-26T03:37:27;6.00;99.90
53152;DHT22;39234;53.158;6.322;2023-03-26T03:39:52;6.20;99.90
53152;DHT22;39234;53.158;6.322;2023-03-26T03:42:18;5.80;99.90
53152;DHT22;39234;53.158;6.322;2023-03-26T03:44:44;5.60;99.90
53152;DHT22;39234;53.158;6.322;2023-03-26T03:47:10;5.60;99.90
53152;DHT22;39234;53.158;6.322;2023-03-26T03:49:38;5.60;99.90
53152;DHT22;39234;53.158;6.322;2023-03-26T03:52:05;5.40;99.90
53152;DHT22;39234;53.158;6.322;2023-03-26T03:54:31;5.30;99.90
53152;DHT22;39234;53.158;6.322;2023-03-26T03:56:57;5.20;99.90
53152;DHT22;39234;53.158;6.322;2023-03-26T03:59:22;5.10;99.90
53152;DHT22;39234;53.158;6.322;2023-03-26T04:01:48;4.90;99.90
53152;DHT22;39234;53.158;6.322;2023-03-26T04:04:15;4.90;99.90
53152;DHT22;39234;53.158;6.322;2023-03-26T04:09:08;4.70;99.90
53152;DHT22;39234;53.158;6.322;2023-03-26T04:16:28;4.50;99.90
53152;DHT22;39234;53.158;6.322;2023-03-26T04:18:54;4.30;99.90
53152;DHT22;39234;53.158;6.322;2023-03-26T04:26:16;4.30;99.90
53152;DHT22;39234;53.158;6.322;2023-03-26T04:28:57;4.40;99.90
53152;DHT22;39234;53.158;6.322;2023-03-26T04:31:25;4.40;99.90
53152;DHT22;39234;53.158;6.322;2023-03-26T04:33:55;4.30;99.90
53152;DHT22;39234;53.158;6.322;2023-03-26T04:36:30;4.50;99.90
53152;DHT22;39234;53.158;6.322;2023-03-26T04:39:01;4.40;99.90
53152;DHT22;39234;53.158;6.322;2023-03-26T04:43:54;4.50;99.90
53152;DHT22;39234;53.158;6.322;2023-03-26T04:46:22;4.40;99.90
53152;DHT22;39234;53.158;6.322;2023-03-26T04:48:52;4.60;99.90
53152;DHT22;39234;53.158;6.322;2023-03-26T04:51:20;4.50;99.90
53152;DHT22;39234;53.158;6.322;2023-03-26T04:53:55;4.50;99.90
53152;DHT22;39234;53.158;6.322;2023-03-26T05:01:32;4.30;99.90
53152;DHT22;39234;53.158;6.322;2023-03-26T05:04:02;4.30;99.90
53152;DHT22;39234;53.158;6.322;2023-03-26T05:06:27;4.20;99.90
53152;DHT22;39234;53.158;6.322;2023-03-26T05:13:47;4.00;99.90
53152;DHT22;39234;53.158;6.322;2023-03-26T05:21:05;3.90;99.90
53152;DHT22;39234;53.158;6.322;2023-03-26T05:28:23;4.10;99.90
53152;DHT22;39234;53.158;6.322;2023-03-26T05:30:51;4.00;99.90
53152;DHT22;39234;53.158;6.322;2023-03-26T05:33:18;3.90;99.90
53152;DHT22;39234;53.158;6.322;2023-03-26T05:35:44;4.10;99.90
53152;DHT22;39234;53.158;6.322;2023-03-26T05:43:03;4.00;99.90
53152;DHT22;39234;53.158;6.322;2023-03-26T05:47:55;4.40;99.90
53152;DHT22;39234;53.158;6.322;2023-03-26T05:52:47;4.50;99.90
53152;DHT22;39234;53.158;6.322;2023-03-26T06:00:07;4.70;99.90
53152;DHT22;39234;53.158;6.322;2023-03-26T06:02:36;4.90;99.90
53152;DHT22;39234;53.158;6.322;2023-03-26T06:14:48;5.20;99.90
53152;DHT22;39234;53.158;6.322;2023-03-26T06:17:13;5.20;99.90
53152;DHT22;39234;53.158;6.322;2023-03-26T06:26:59;5.20;99.90
53152;DHT22;39234;53.158;6.322;2023-03-26T06:36:43;5.50;99.90
53152;DHT22;39234;53.158;6.322;2023-03-26T06:39:09;5.50;99.90
53152;DHT22;39234;53.158;6.322;2023-03-26T06:41:35;5.60;99.90
53152;DHT22;39234;53.158;6.322;2023-03-26T06:44:00;5.60;99.90
53152;DHT22;39234;53.158;6.322;2023-03-26T06:46:29;5.70;99.90
53152;DHT22;39234;53.158;6.322;2023-03-26T06:48:55;5.90;99.90
53152;DHT22;39234;53.158;6.322;2023-03-26T06:51:21;5.90;99.90
53152;DHT22;39234;53.158;6.322;2023-03-26T06:53:46;6.00;99.90
53152;DHT22;39234;53.158;6.322;2023-03-26T06:56:12;5.90;99.90
53152;DHT22;39234;53.158;6.322;2023-03-26T06:58:38;6.00;99.90
53152;DHT22;39234;53.158;6.322;2023-03-26T07:01:04;6.20;99.90
53152;DHT22;39234;53.158;6.322;2023-03-26T07:03:30;6.10;99.90
53152;DHT22;39234;53.158;6.322;2023-03-26T07:05:55;6.40;99.90
53152;DHT22;39234;53.158;6.322;2023-03-26T07:08:21;6.30;99.90
53152;DHT22;39234;53.158;6.322;2023-03-26T07:13:13;6.40;99.90
53152;DHT22;39234;53.158;6.322;2023-03-26T07:15:38;6.30;99.90
53152;DHT22;39234;53.158;6.322;2023-03-26T07:18:04;6.30;99.90
53152;DHT22;39234;53.158;6.322;2023-03-26T07:20:31;6.40;99.90
53152;DHT22;39234;53.158;6.322;2023-03-26T07:22:57;6.40;99.90
53152;DHT22;39234;53.158;6.322;2023-03-26T07:30:58;6.30;99.90
53152;DHT22;39234;53.158;6.322;2023-03-26T07:36:34;6.40;99.90
53152;DHT22;39234;53.158;6.322;2023-03-26T07:41:49;6.80;99.90
53152;DHT22;39234;53.158;6.322;2023-03-26T07:44:39;6.80;99.90
53152;DHT22;39234;53.158;6.322;2023-03-26T07:47:37;6.80;99.90
53152;DHT22;39234;53.158;6.322;2023-03-26T07:50:03;7.10;99.90
53152;DHT22;39234;53.158;6.322;2023-03-26T07:52:29;7.20;99.90
53152;DHT22;39234;53.158;6.322;2023-03-26T07:54:56;7.30;99.90
53152;DHT22;39234;53.158;6.322;2023-03-26T07:57:55;7.50;99.90
53152;DHT22;39234;53.158;6.322;2023-03-26T08:00:29;7.60;99.90
53152;DHT22;39234;53.158;6.322;2023-03-26T08:05:59;9.40;99.90
53152;DHT22;39234;53.158;6.322;2023-03-26T08:11:13;11.80;99.90
53152;DHT22;39234;53.158;6.322;2023-03-26T08:16:35;12.00;99.90
53152;DHT22;39234;53.158;6.322;2023-03-26T08:19:14;11.90;99.90
53152;DHT22;39234;53.158;6.322;2023-03-26T08:21:54;12.30;99.90
53152;DHT22;39234;53.158;6.322;2023-03-26T08:30:33;10.70;99.90
53152;DHT22;39234;53.158;6.322;2023-03-26T08:35:36;9.90;99.90
53152;DHT22;39234;53.158;6.322;2023-03-26T08:38:08;9.80;99.90
53152;DHT22;39234;53.158;6.322;2023-03-26T08:49:37;8.80;99.90
53152;DHT22;39234;53.158;6.322;2023-03-26T08:57:46;8.90;99.90
53152;DHT22;39234;53.158;6.322;2023-03-26T09:06:14;8.40;99.90
53152;DHT22;39234;53.158;6.322;2023-03-26T09:09:12;8.60;99.90
53152;DHT22;39234;53.158;6.322;2023-03-26T09:12:06;8.90;99.90
53152;DHT22;39234;53.158;6.322;2023-03-26T09:26:24;9.10;99.90
53152;DHT22;39234;53.158;6.322;2023-03-26T09:31:51;8.80;99.90
53152;DHT22;39234;53.158;6.322;2023-03-26T09:37:24;8.30;99.90
53152;DHT22;39234;53.158;6.322;2023-03-26T09:40:19;8.30;99.90
53152;DHT22;39234;53.158;6.322;2023-03-26T09:43:23;8.20;99.90
53152;DHT22;39234;53.158;6.322;2023-03-26T09:48:40;8.10;99.90
53152;DHT22;39234;53.158;6.322;2023-03-26T10:02:39;8.30;99.90
53152;DHT22;39234;53.158;6.322;2023-03-26T10:11:07;8.40;99.90
53152;DHT22;39234;53.158;6.322;2023-03-26T10:17:19;9.00;99.90
53152;DHT22;39234;53.158;6.322;2023-03-26T10:33:34;8.50;99.90
53152;DHT22;39234;53.158;6.322;2023-03-26T10:36:13;8.50;99.90
53152;DHT22;39234;53.158;6.322;2023-03-26T10:49:40;6.80;99.90
53152;DHT22;39234;53.158;6.322;2023-03-26T10:52:17;8.50;99.90
53152;DHT22;39234;53.158;6.322;2023-03-26T10:55:08;8.60;99.90
53152;DHT22;39234;53.158;6.322;2023-03-26T10:57:49;8.50;99.90
53152;DHT22;39234;53.158;6.322;2023-03-26T11:00:22;8.50;99.90
53152;DHT22;39234;53.158;6.322;2023-03-26T11:08:41;8.80;99.90
53152;DHT22;39234;53.158;6.322;2023-03-26T11:11:28;8.70;99.90
53152;DHT22;39234;53.158;6.322;2023-03-26T11:28:14;8.90;99.90
53152;DHT22;39234;53.158;6.322;2023-03-26T11:31:00;8.90;99.90
53152;DHT22;39234;53.158;6.322;2023-03-26T11:33:38;9.10;99.90
53152;DHT22;39234;53.158;6.322;2023-03-26T11:36:08;8.90;99.90
53152;DHT22;39234;53.158;6.322;2023-03-26T11:38:43;8.70;99.90
53152;DHT22;39234;53.158;6.322;2023-03-26T11:43:39;8.60;99.90
53152;DHT22;39234;53.158;6.322;2023-03-26T11:46:10;8.60;99.90
53152;DHT22;39234;53.158;6.322;2023-03-26T11:49:02;8.60;99.90
53152;DHT22;39234;53.158;6.322;2023-03-26T11:51:41;8.60;99.90
53152;DHT22;39234;53.158;6.322;2023-03-26T11:54:11;8.90;99.90
53152;DHT22;39234;53.158;6.322;2023-03-26T11:56:55;8.60;99.90
53152;DHT22;39234;53.158;6.322;2023-03-26T11:59:41;8.50;99.90
53152;DHT22;39234;53.158;6.322;2023-03-26T12:04:45;8.60;99.90
53152;DHT22;39234;53.158;6.322;2023-03-26T12:07:32;8.40;99.90
53152;DHT22;39234;53.158;6.322;2023-03-26T12:10:00;8.50;99.90
53152;DHT22;39234;53.158;6.322;2023-03-26T12:12:37;9.60;99.90
53152;DHT22;39234;53.158;6.322;2023-03-26T12:15:14;8.10;99.90
53152;DHT22;39234;53.158;6.322;2023-03-26T12:17:41;8.50;99.90
53152;DHT22;39234;53.158;6.322;2023-03-26T12:25:21;8.40;99.90
53152;DHT22;39234;53.158;6.322;2023-03-26T12:27:58;8.30;99.90
53152;DHT22;39234;53.158;6.322;2023-03-26T12:30:27;8.50;99.90
53152;DHT22;39234;53.158;6.322;2023-03-26T12:33:15;8.40;99.90
53152;DHT22;39234;53.158;6.322;2023-03-26T12:35:43;8.50;99.90
53152;DHT22;39234;53.158;6.322;2023-03-26T12:43:52;8.40;99.90
53152;DHT22;39234;53.158;6.322;2023-03-26T12:48:54;8.60;99.90
53152;DHT22;39234;53.158;6.322;2023-03-26T13:02:46;8.30;99.90
53152;DHT22;39234;53.158;6.322;2023-03-26T13:08:24;8.20;99.90
53152;DHT22;39234;53.158;6.322;2023-03-26T13:14:41;8.20;99.90
53152;DHT22;39234;53.158;6.322;2023-03-26T13:20:30;8.30;99.90
53152;DHT22;39234;53.158;6.322;2023-03-26T13:39:23;9.00;99.90
53152;DHT22;39234;53.158;6.322;2023-03-26T13:42:06;8.10;99.90
53152;DHT22;39234;53.158;6.322;2023-03-26T13:45:13;8.10;99.90
53152;DHT22;39234;53.158;6.322;2023-03-26T13:47:49;8.00;99.90
53152;DHT22;39234;53.158;6.322;2023-03-26T13:53:08;8.00;99.90
53152;DHT22;39234;53.158;6.322;2023-03-26T13:55:41;8.00;99.90
53152;DHT22;39234;53.158;6.322;2023-03-26T14:14:48;7.90;99.90
53152;DHT22;39234;53.158;6.322;2023-03-26T14:17:26;7.80;99.90
53152;DHT22;39234;53.158;6.322;2023-03-26T14:26:18;7.70;99.90
53152;DHT22;39234;53.158;6.322;2023-03-26T14:31:29;7.70;99.90
53152;DHT22;39234;53.158;6.322;2023-03-26T14:42:01;7.60;99.90
53152;DHT22;39234;53.158;6.322;2023-03-26T14:47:21;7.60;99.90
53152;DHT22;39234;53.158;6.322;2023-03-26T14:52:53;7.70;99.90
53152;DHT22;39234;53.158;6.322;2023-03-26T15:03:53;7.70;99.90
53152;DHT22;39234;53.158;6.322;2023-03-26T15:26:23;7.70;99.90
53152;DHT22;39234;53.158;6.322;2023-03-26T15:29:26;7.70;99.90
53152;DHT22;39234;53.158;6.322;2023-03-26T15:41:33;7.00;99.90
53152;DHT22;39234;53.158;6.322;2023-03-26T15:54:58;6.90;99.90
53152;DHT22;39234;53.158;6.322;2023-03-26T15:57:48;7.10;99.90
53152;DHT22;39234;53.158;6.322;2023-03-26T16:00:25;7.00;99.90
53152;DHT22;39234;53.158;6.322;2023-03-26T16:06:06;6.70;99.90
53152;DHT22;39234;53.158;6.322;2023-03-26T16:09:08;6.80;99.90
53152;DHT22;39234;53.158;6.322;2023-03-26T16:11:56;8.40;99.90
53152;DHT22;39234;53.158;6.322;2023-03-26T16:14:37;6.60;99.90
53152;DHT22;39234;53.158;6.322;2023-03-26T16:17:11;6.70;99.90
53152;DHT22;39234;53.158;6.322;2023-03-26T16:22:44;6.60;99.90
53152;DHT22;39234;53.158;6.322;2023-03-26T16:25:33;6.60;99.90
53152;DHT22;39234;53.158;6.322;2023-03-26T16:28:26;6.70;99.90
53152;DHT22;39234;53.158;6.322;2023-03-26T16:36:36;6.40;99.90
53152;DHT22;39234;53.158;6.322;2023-03-26T16:50:05;6.10;99.90
53152;DHT22;39234;53.158;6.322;2023-03-26T17:09:00;5.70;99.90
53152;DHT22;39234;53.158;6.322;2023-03-26T17:11:59;5.90;99.90
53152;DHT22;39234;53.158;6.322;2023-03-26T17:17:39;5.70;99.90
53152;DHT22;39234;53.158;6.322;2023-03-26T17:31:40;5.70;99.90
53152;DHT22;39234;53.158;6.322;2023-03-26T17:33:41;5.40;99.90
53152;DHT22;39234;53.158;6.322;2023-03-26T17:41:04;5.60;99.90
53152;DHT22;39234;53.158;6.322;2023-03-26T17:43:47;5.60;99.90
53152;DHT22;39234;53.158;6.322;2023-03-26T17:51:34;5.40;99.90
53152;DHT22;39234;53.158;6.322;2023-03-26T17:56:51;5.10;99.90
53152;DHT22;39234;53.158;6.322;2023-03-26T17:59:20;5.20;99.90
53152;DHT22;39234;53.158;6.322;2023-03-26T18:01:58;5.10;99.90
53152;DHT22;39234;53.158;6.322;2023-03-26T18:04:35;5.00;99.90
53152;DHT22;39234;53.158;6.322;2023-03-26T18:07:11;4.80;99.90
53152;DHT22;39234;53.158;6.322;2023-03-26T18:16:04;4.70;99.90
53152;DHT22;39234;53.158;6.322;2023-03-26T18:21:21;4.40;99.90
53152;DHT22;39234;53.158;6.322;2023-03-26T18:23:48;4.50;99.90
53152;DHT22;39234;53.158;6.322;2023-03-26T18:26:30;4.50;99.90
53152;DHT22;39234;53.158;6.322;2023-03-26T18:31:52;4.50;99.90
53152;DHT22;39234;53.158;6.322;2023-03-26T18:34:19;4.10;99.90
53152;DHT22;39234;53.158;6.322;2023-03-26T18:37:31;4.20;99.90
53152;DHT22;39234;53.158;6.322;2023-03-26T18:49:21;4.10;99.90
53152;DHT22;39234;53.158;6.322;2023-03-26T18:51:48;3.90;99.90
53152;DHT22;39234;53.158;6.322;2023-03-26T18:54:18;3.80;99.90
53152;DHT22;39234;53.158;6.322;2023-03-26T18:56:46;3.70;99.90
53152;DHT22;39234;53.158;6.322;2023-03-26T18:59:29;3.70;99.90
53152;DHT22;39234;53.158;6.322;2023-03-26T19:02:02;3.60;99.90
53152;DHT22;39234;53.158;6.322;2023-03-26T19:04:30;3.70;99.90
53152;DHT22;39234;53.158;6.322;2023-03-26T19:06:59;3.60;99.90
53152;DHT22;39234;53.158;6.322;2023-03-26T19:09:27;3.80;99.90
53152;DHT22;39234;53.158;6.322;2023-03-26T19:11:55;3.70;99.90
53152;DHT22;39234;53.158;6.322;2023-03-26T19:16:54;3.60;99.90
53152;DHT22;39234;53.158;6.322;2023-03-26T19:19:24;3.60;99.90
53152;DHT22;39234;53.158;6.322;2023-03-26T19:24:18;3.70;99.90
53152;DHT22;39234;53.158;6.322;2023-03-26T19:26:46;3.50;99.90
53152;DHT22;39234;53.158;6.322;2023-03-26T19:29:14;3.70;99.90
53152;DHT22;39234;53.158;6.322;2023-03-26T19:34:22;3.60;99.90
53152;DHT22;39234;53.158;6.322;2023-03-26T19:44:16;3.60;99.90
53152;DHT22;39234;53.158;6.322;2023-03-26T19:46:44;3.60;99.90
53152;DHT22;39234;53.158;6.322;2023-03-26T19:49:31;3.40;99.90
53152;DHT22;39234;53.158;6.322;2023-03-26T19:52:23;3.40;99.90
53152;DHT22;39234;53.158;6.322;2023-03-26T19:57:32;3.20;99.90
53152;DHT22;39234;53.158;6.322;2023-03-26T20:07:23;2.90;99.90
53152;DHT22;39234;53.158;6.322;2023-03-26T20:14:45;2.90;99.90
53152;DHT22;39234;53.158;6.322;2023-03-26T20:17:17;3.10;99.90
53152;DHT22;39234;53.158;6.322;2023-03-26T20:22:17;2.90;99.90
53152;DHT22;39234;53.158;6.322;2023-03-26T20:27:13;2.90;99.90
53152;DHT22;39234;53.158;6.322;2023-03-26T20:29:40;2.80;99.90
53152;DHT22;39234;53.158;6.322;2023-03-26T20:32:20;2.90;99.90
53152;DHT22;39234;53.158;6.322;2023-03-26T20:54:22;3.00;99.90
53152;DHT22;39234;53.158;6.322;2023-03-26T20:59:25;2.80;99.90
53152;DHT22;39234;53.158;6.322;2023-03-26T21:01:53;2.80;99.90
53152;DHT22;39234;53.158;6.322;2023-03-26T21:04:20;2.80;99.90
53152;DHT22;39234;53.158;6.322;2023-03-26T21:06:47;2.80;99.90
53152;DHT22;39234;53.158;6.322;2023-03-26T21:09:15;2.90;99.90
53152;DHT22;39234;53.158;6.322;2023-03-26T21:11:51;2.80;99.90
53152;DHT22;39234;53.158;6.322;2023-03-26T21:14:21;2.80;99.90
53152;DHT22;39234;53.158;6.322;2023-03-26T21:25:00;2.80;99.90
53152;DHT22;39234;53.158;6.322;2023-03-26T21:27:26;2.80;99.90
53152;DHT22;39234;53.158;6.322;2023-03-26T21:29:54;2.60;99.90
53152;DHT22;39234;53.158;6.322;2023-03-26T21:32:21;2.90;99.90
53152;DHT22;39234;53.158;6.322;2023-03-26T21:34:47;2.60;99.90
53152;DHT22;39234;53.158;6.322;2023-03-26T21:37:14;2.40;99.90
53152;DHT22;39234;53.158;6.322;2023-03-26T21:42:10;2.40;99.90
53152;DHT22;39234;53.158;6.322;2023-03-26T21:47:03;2.30;99.90
53152;DHT22;39234;53.158;6.322;2023-03-26T21:49:29;2.30;99.90
53152;DHT22;39234;53.158;6.322;2023-03-26T21:54:26;2.00;99.90
53152;DHT22;39234;53.158;6.322;2023-03-26T21:59:53;1.80;99.90
53152;DHT22;39234;53.158;6.322;2023-03-26T22:07:53;1.90;99.90
53152;DHT22;39234;53.158;6.322;2023-03-26T22:17:40;2.00;99.90
53152;DHT22;39234;53.158;6.322;2023-03-26T22:20:10;2.00;99.90
53152;DHT22;39234;53.158;6.322;2023-03-26T23:08:58;1.60;99.90
53152;DHT22;39234;53.158;6.322;2023-03-26T23:21:18;1.50;99.90
53152;DHT22;39234;53.158;6.322;2023-03-26T23:23:45;1.50;99.90
53152;DHT22;39234;53.158;6.322;2023-03-26T23:31:07;1.80;99.90
53152;DHT22;39234;53.158;6.322;2023-03-26T23:33:35;1.70;99.90
53152;DHT22;39234;53.158;6.322;2023-03-26T23:36:04;1.70;99.90
53152;DHT22;39234;53.158;6.322;2023-03-26T23:38:34;1.70;99.90
53152;DHT22;39234;53.158;6.322;2023-03-26T23:43:27;1.90;99.90
53152;DHT22;39234;53.158;6.322;2023-03-26T23:48:21;1.60;99.90
53152;DHT22;39234;53.158;6.322;2023-03-26T23:50:48;1.60;99.90
53152;DHT22;39234;53.158;6.322;2023-03-26T23:53:22;1.70;99.90
53152;DHT22;39234;53.158;6.322;2023-03-26T23:55:50;1.80;99.90
